sensor_id;sensor_type;location;lat;lon;timestamp;P1;durP1;ratioP1;P2;durP2;ratioP2
85303;SDS011;75708;47.930;13.782;2024-03-29T00:00:38;0.20;;;0.00;;
85303;SDS011;75708;47.930;13.782;2024-03-29T00:03:04;0.95;;;0.20;;
85303;SDS011;75708;47.930;13.782;2024-03-29T00:05:30;0.43;;;0.15;;
85303;SDS011;75708;47.930;13.782;2024-03-29T00:07:55;0.85;;;0.10;;
85303;SDS011;75708;47.930;13.782;2024-03-29T00:10:21;0.20;;;0.10;;
85303;SDS011;75708;47.930;13.782;2024-03-29T00:12:47;0.15;;;0.10;;
85303;SDS011;75708;47.930;13.782;2024-03-29T00:15:12;2.65;;;0.15;;
85303;SDS011;75708;47.930;13.782;2024-03-29T00:17:38;0.68;;;0.20;;
85303;SDS011;75708;47.930;13.782;2024-03-29T00:20:04;0.45;;;0.10;;
85303;SDS011;75708;47.930;13.782;2024-03-29T00:22:31;0.40;;;0.10;;
85303;SDS011;75708;47.930;13.782;2024-03-29T00:24:57;0.15;;;0.10;;
85303;SDS011;75708;47.930;13.782;2024-03-29T00:27:22;0.63;;;0.05;;
85303;SDS011;75708;47.930;13.782;2024-03-29T00:29:50;1.30;;;0.10;;
85303;SDS011;75708;47.930;13.782;2024-03-29T00:32:19;0.40;;;0.10;;
85303;SDS011;75708;47.930;13.782;2024-03-29T00:34:47;0.65;;;0.10;;
85303;SDS011;75708;47.930;13.782;2024-03-29T00:37:15;0.60;;;0.20;;
85303;SDS011;75708;47.930;13.782;2024-03-29T00:39:40;0.43;;;0.17;;
85303;SDS011;75708;47.930;13.782;2024-03-29T00:42:07;0.60;;;0.17;;
85303;SDS011;75708;47.930;13.782;2024-03-29T00:44:40;0.30;;;0.05;;
85303;SDS011;75708;47.930;13.782;2024-03-29T00:47:06;1.00;;;0.10;;
85303;SDS011;75708;47.930;13.782;2024-03-29T00:49:32;0.40;;;0.10;;
85303;SDS011;75708;47.930;13.782;2024-03-29T00:51:57;0.75;;;0.10;;
85303;SDS011;75708;47.930;13.782;2024-03-29T00:54:23;1.02;;;0.10;;
85303;SDS011;75708;47.930;13.782;2024-03-29T00:56:49;1.48;;;0.20;;
85303;SDS011;75708;47.930;13.782;2024-03-29T00:59:15;0.00;;;0.00;;
85303;SDS011;75708;47.930;13.782;2024-03-29T01:01:41;1.17;;;0.10;;
85303;SDS011;75708;47.930;13.782;2024-03-29T01:04:06;0.65;;;0.13;;
85303;SDS011;75708;47.930;13.782;2024-03-29T01:06:32;0.88;;;0.10;;
85303;SDS011;75708;47.930;13.782;2024-03-29T01:08:59;0.43;;;0.10;;
85303;SDS011;75708;47.930;13.782;2024-03-29T01:11:25;3.83;;;0.30;;
85303;SDS011;75708;47.930;13.782;2024-03-29T01:13:51;0.13;;;0.03;;
85303;SDS011;75708;47.930;13.782;2024-03-29T01:16:17;0.75;;;0.10;;
85303;SDS011;75708;47.930;13.782;2024-03-29T01:18:42;0.30;;;0.10;;
85303;SDS011;75708;47.930;13.782;2024-03-29T01:21:09;2.40;;;0.20;;
85303;SDS011;75708;47.930;13.782;2024-03-29T01:23:34;0.20;;;0.05;;
85303;SDS011;75708;47.930;13.782;2024-03-29T01:26:00;0.55;;;0.13;;
85303;SDS011;75708;47.930;13.782;2024-03-29T01:28:26;0.93;;;0.10;;
85303;SDS011;75708;47.930;13.782;2024-03-29T01:30:54;6.85;;;0.60;;
85303;SDS011;75708;47.930;13.782;2024-03-29T01:33:21;0.10;;;0.10;;
85303;SDS011;75708;47.930;13.782;2024-03-29T01:35:46;0.38;;;0.20;;
85303;SDS011;75708;47.930;13.782;2024-03-29T01:38:14;1.67;;;0.20;;
85303;SDS011;75708;47.930;13.782;2024-03-29T01:40:40;0.50;;;0.20;;
85303;SDS011;75708;47.930;13.782;2024-03-29T01:43:05;0.35;;;0.00;;
85303;SDS011;75708;47.930;13.782;2024-03-29T01:45:32;0.10;;;0.03;;
85303;SDS011;75708;47.930;13.782;2024-03-29T01:48:00;0.30;;;0.10;;
85303;SDS011;75708;47.930;13.782;2024-03-29T01:50:25;0.25;;;0.10;;
85303;SDS011;75708;47.930;13.782;2024-03-29T01:52:51;0.20;;;0.20;;
85303;SDS011;75708;47.930;13.782;2024-03-29T01:55:17;0.08;;;0.00;;
85303;SDS011;75708;47.930;13.782;2024-03-29T01:57:43;0.35;;;0.20;;
85303;SDS011;75708;47.930;13.782;2024-03-29T02:00:09;0.93;;;0.20;;
85303;SDS011;75708;47.930;13.782;2024-03-29T02:02:36;0.10;;;0.10;;
85303;SDS011;75708;47.930;13.782;2024-03-29T02:05:02;0.95;;;0.20;;
85303;SDS011;75708;47.930;13.782;2024-03-29T02:07:29;0.45;;;0.10;;
85303;SDS011;75708;47.930;13.782;2024-03-29T02:09:55;0.28;;;0.10;;
85303;SDS011;75708;47.930;13.782;2024-03-29T02:12:21;0.25;;;0.10;;
85303;SDS011;75708;47.930;13.782;2024-03-29T02:14:47;0.65;;;0.10;;
85303;SDS011;75708;47.930;13.782;2024-03-29T02:17:12;0.20;;;0.00;;
85303;SDS011;75708;47.930;13.782;2024-03-29T02:19:38;1.42;;;0.13;;
85303;SDS011;75708;47.930;13.782;2024-03-29T02:22:03;0.10;;;0.05;;
85303;SDS011;75708;47.930;13.782;2024-03-29T02:24:31;0.20;;;0.00;;
85303;SDS011;75708;47.930;13.782;2024-03-29T02:26:57;2.15;;;0.30;;
85303;SDS011;75708;47.930;13.782;2024-03-29T02:29:23;0.43;;;0.10;;
85303;SDS011;75708;47.930;13.782;2024-03-29T02:31:49;1.98;;;0.22;;
85303;SDS011;75708;47.930;13.782;2024-03-29T02:34:15;0.35;;;0.20;;
85303;SDS011;75708;47.930;13.782;2024-03-29T02:36:41;1.83;;;0.13;;
85303;SDS011;75708;47.930;13.782;2024-03-29T02:39:09;0.88;;;0.25;;
85303;SDS011;75708;47.930;13.782;2024-03-29T02:41:35;1.27;;;0.40;;
85303;SDS011;75708;47.930;13.782;2024-03-29T02:44:00;0.20;;;0.10;;
85303;SDS011;75708;47.930;13.782;2024-03-29T02:46:26;0.57;;;0.10;;
85303;SDS011;75708;47.930;13.782;2024-03-29T02:48:51;0.73;;;0.30;;
85303;SDS011;75708;47.930;13.782;2024-03-29T02:51:17;0.88;;;0.05;;
85303;SDS011;75708;47.930;13.782;2024-03-29T02:53:43;0.10;;;0.10;;
85303;SDS011;75708;47.930;13.782;2024-03-29T02:56:08;0.10;;;0.00;;
85303;SDS011;75708;47.930;13.782;2024-03-29T02:58:34;0.05;;;0.00;;
85303;SDS011;75708;47.930;13.782;2024-03-29T03:01:06;0.00;;;0.00;;
85303;SDS011;75708;47.930;13.782;2024-03-29T03:03:35;0.28;;;0.00;;
85303;SDS011;75708;47.930;13.782;2024-03-29T03:06:01;0.00;;;0.00;;
85303;SDS011;75708;47.930;13.782;2024-03-29T03:08:27;0.52;;;0.30;;
85303;SDS011;75708;47.930;13.782;2024-03-29T03:11:12;0.22;;;0.17;;
85303;SDS011;75708;47.930;13.782;2024-03-29T03:13:38;0.75;;;0.20;;
85303;SDS011;75708;47.930;13.782;2024-03-29T03:16:04;0.32;;;0.10;;
85303;SDS011;75708;47.930;13.782;2024-03-29T03:18:30;1.42;;;0.10;;
85303;SDS011;75708;47.930;13.782;2024-03-29T03:20:56;3.20;;;0.38;;
85303;SDS011;75708;47.930;13.782;2024-03-29T03:23:25;0.00;;;0.00;;
85303;SDS011;75708;47.930;13.782;2024-03-29T03:25:54;0.10;;;0.00;;
85303;SDS011;75708;47.930;13.782;2024-03-29T03:28:20;0.00;;;0.00;;
85303;SDS011;75708;47.930;13.782;2024-03-29T03:30:46;0.17;;;0.08;;
85303;SDS011;75708;47.930;13.782;2024-03-29T03:33:12;0.85;;;0.10;;
85303;SDS011;75708;47.930;13.782;2024-03-29T03:35:38;0.30;;;0.20;;
85303;SDS011;75708;47.930;13.782;2024-03-29T03:38:04;0.55;;;0.20;;
85303;SDS011;75708;47.930;13.782;2024-03-29T03:40:29;0.30;;;0.10;;
85303;SDS011;75708;47.930;13.782;2024-03-29T03:42:55;0.22;;;0.03;;
85303;SDS011;75708;47.930;13.782;2024-03-29T03:45:20;0.10;;;0.10;;
85303;SDS011;75708;47.930;13.782;2024-03-29T03:47:46;0.15;;;0.05;;
85303;SDS011;75708;47.930;13.782;2024-03-29T03:50:11;0.70;;;0.30;;
85303;SDS011;75708;47.930;13.782;2024-03-29T03:52:37;2.42;;;0.38;;
85303;SDS011;75708;47.930;13.782;2024-03-29T03:55:03;0.30;;;0.10;;
85303;SDS011;75708;47.930;13.782;2024-03-29T03:57:28;0.30;;;0.10;;
85303;SDS011;75708;47.930;13.782;2024-03-29T03:59:54;0.32;;;0.17;;
85303;SDS011;75708;47.930;13.782;2024-03-29T04:02:19;0.25;;;0.10;;
85303;SDS011;75708;47.930;13.782;2024-03-29T04:04:48;0.20;;;0.10;;
85303;SDS011;75708;47.930;13.782;2024-03-29T04:07:14;0.30;;;0.10;;
85303;SDS011;75708;47.930;13.782;2024-03-29T04:09:39;0.00;;;0.00;;
85303;SDS011;75708;47.930;13.782;2024-03-29T04:12:05;0.05;;;0.00;;
85303;SDS011;75708;47.930;13.782;2024-03-29T04:14:30;0.43;;;0.17;;
85303;SDS011;75708;47.930;13.782;2024-03-29T04:16:56;2.72;;;0.10;;
85303;SDS011;75708;47.930;13.782;2024-03-29T04:19:22;0.70;;;0.13;;
85303;SDS011;75708;47.930;13.782;2024-03-29T04:21:47;0.05;;;0.00;;
85303;SDS011;75708;47.930;13.782;2024-03-29T04:24:13;0.10;;;0.03;;
85303;SDS011;75708;47.930;13.782;2024-03-29T04:26:38;0.25;;;0.10;;
85303;SDS011;75708;47.930;13.782;2024-03-29T04:29:04;0.15;;;0.10;;
85303;SDS011;75708;47.930;13.782;2024-03-29T04:31:30;1.13;;;0.10;;
85303;SDS011;75708;47.930;13.782;2024-03-29T04:33:55;0.08;;;0.00;;
85303;SDS011;75708;47.930;13.782;2024-03-29T04:36:21;0.00;;;0.00;;
85303;SDS011;75708;47.930;13.782;2024-03-29T04:38:47;0.63;;;0.25;;
85303;SDS011;75708;47.930;13.782;2024-03-29T04:41:13;0.55;;;0.15;;
85303;SDS011;75708;47.930;13.782;2024-03-29T04:43:39;0.28;;;0.00;;
85303;SDS011;75708;47.930;13.782;2024-03-29T04:48:38;1.30;;;0.20;;
85303;SDS011;75708;47.930;13.782;2024-03-29T04:51:05;0.57;;;0.30;;
85303;SDS011;75708;47.930;13.782;2024-03-29T04:53:31;1.05;;;0.32;;
85303;SDS011;75708;47.930;13.782;2024-03-29T04:55:57;0.17;;;0.10;;
85303;SDS011;75708;47.930;13.782;2024-03-29T04:58:23;0.10;;;0.10;;
85303;SDS011;75708;47.930;13.782;2024-03-29T05:00:49;0.55;;;0.10;;
85303;SDS011;75708;47.930;13.782;2024-03-29T05:03:19;0.43;;;0.10;;
85303;SDS011;75708;47.930;13.782;2024-03-29T05:08:11;0.30;;;0.08;;
85303;SDS011;75708;47.930;13.782;2024-03-29T05:10:38;0.68;;;0.00;;
85303;SDS011;75708;47.930;13.782;2024-03-29T05:13:04;0.10;;;0.10;;
85303;SDS011;75708;47.930;13.782;2024-03-29T05:15:30;0.45;;;0.10;;
85303;SDS011;75708;47.930;13.782;2024-03-29T05:17:56;0.40;;;0.10;;
85303;SDS011;75708;47.930;13.782;2024-03-29T05:20:22;0.68;;;0.25;;
85303;SDS011;75708;47.930;13.782;2024-03-29T05:22:47;1.85;;;0.52;;
85303;SDS011;75708;47.930;13.782;2024-03-29T05:25:13;0.20;;;0.10;;
85303;SDS011;75708;47.930;13.782;2024-03-29T05:27:39;0.28;;;0.10;;
85303;SDS011;75708;47.930;13.782;2024-03-29T05:30:04;1.77;;;0.47;;
85303;SDS011;75708;47.930;13.782;2024-03-29T05:32:30;0.08;;;0.03;;
85303;SDS011;75708;47.930;13.782;2024-03-29T05:34:56;0.93;;;0.25;;
85303;SDS011;75708;47.930;13.782;2024-03-29T05:37:22;0.13;;;0.10;;
85303;SDS011;75708;47.930;13.782;2024-03-29T05:39:50;0.63;;;0.10;;
85303;SDS011;75708;47.930;13.782;2024-03-29T05:42:29;0.10;;;0.00;;
85303;SDS011;75708;47.930;13.782;2024-03-29T05:44:55;0.63;;;0.20;;
85303;SDS011;75708;47.930;13.782;2024-03-29T05:47:21;0.40;;;0.20;;
85303;SDS011;75708;47.930;13.782;2024-03-29T05:49:47;1.08;;;0.20;;
85303;SDS011;75708;47.930;13.782;2024-03-29T05:52:13;0.45;;;0.20;;
85303;SDS011;75708;47.930;13.782;2024-03-29T05:54:42;0.43;;;0.20;;
85303;SDS011;75708;47.930;13.782;2024-03-29T05:57:09;0.30;;;0.13;;
85303;SDS011;75708;47.930;13.782;2024-03-29T05:59:35;2.30;;;0.20;;
85303;SDS011;75708;47.930;13.782;2024-03-29T06:02:01;0.98;;;0.30;;
85303;SDS011;75708;47.930;13.782;2024-03-29T06:04:27;0.75;;;0.20;;
85303;SDS011;75708;47.930;13.782;2024-03-29T06:06:59;0.32;;;0.10;;
85303;SDS011;75708;47.930;13.782;2024-03-29T06:09:25;0.30;;;0.10;;
85303;SDS011;75708;47.930;13.782;2024-03-29T06:11:51;1.17;;;0.30;;
85303;SDS011;75708;47.930;13.782;2024-03-29T06:14:17;0.10;;;0.10;;
85303;SDS011;75708;47.930;13.782;2024-03-29T06:17:01;0.13;;;0.10;;
85303;SDS011;75708;47.930;13.782;2024-03-29T06:19:45;0.88;;;0.40;;
85303;SDS011;75708;47.930;13.782;2024-03-29T06:22:10;0.10;;;0.03;;
85303;SDS011;75708;47.930;13.782;2024-03-29T06:24:36;0.25;;;0.08;;
85303;SDS011;75708;47.930;13.782;2024-03-29T06:27:03;0.30;;;0.10;;
85303;SDS011;75708;47.930;13.782;2024-03-29T06:29:29;0.30;;;0.17;;
85303;SDS011;75708;47.930;13.782;2024-03-29T06:31:55;0.43;;;0.03;;
85303;SDS011;75708;47.930;13.782;2024-03-29T06:34:20;0.10;;;0.10;;
85303;SDS011;75708;47.930;13.782;2024-03-29T06:36:46;0.28;;;0.10;;
85303;SDS011;75708;47.930;13.782;2024-03-29T06:39:11;0.05;;;0.00;;
85303;SDS011;75708;47.930;13.782;2024-03-29T06:41:37;0.30;;;0.10;;
85303;SDS011;75708;47.930;13.782;2024-03-29T06:44:03;0.50;;;0.15;;
85303;SDS011;75708;47.930;13.782;2024-03-29T06:46:28;0.30;;;0.20;;
85303;SDS011;75708;47.930;13.782;2024-03-29T06:48:54;0.40;;;0.10;;
85303;SDS011;75708;47.930;13.782;2024-03-29T06:51:19;0.85;;;0.10;;
85303;SDS011;75708;47.930;13.782;2024-03-29T06:53:45;0.32;;;0.10;;
85303;SDS011;75708;47.930;13.782;2024-03-29T06:56:10;0.35;;;0.10;;
85303;SDS011;75708;47.930;13.782;2024-03-29T06:58:36;0.40;;;0.10;;
85303;SDS011;75708;47.930;13.782;2024-03-29T07:01:02;0.13;;;0.10;;
85303;SDS011;75708;47.930;13.782;2024-03-29T07:03:27;0.80;;;0.20;;
85303;SDS011;75708;47.930;13.782;2024-03-29T07:05:53;0.30;;;0.20;;
85303;SDS011;75708;47.930;13.782;2024-03-29T07:08:19;0.32;;;0.20;;
85303;SDS011;75708;47.930;13.782;2024-03-29T07:10:44;0.10;;;0.03;;
85303;SDS011;75708;47.930;13.782;2024-03-29T07:13:10;0.77;;;0.30;;
85303;SDS011;75708;47.930;13.782;2024-03-29T07:15:35;3.05;;;1.70;;
85303;SDS011;75708;47.930;13.782;2024-03-29T07:18:01;5.45;;;1.95;;
85303;SDS011;75708;47.930;13.782;2024-03-29T07:20:30;2.95;;;1.70;;
85303;SDS011;75708;47.930;13.782;2024-03-29T07:22:55;3.88;;;1.52;;
85303;SDS011;75708;47.930;13.782;2024-03-29T07:25:21;0.25;;;0.10;;
85303;SDS011;75708;47.930;13.782;2024-03-29T07:27:47;0.40;;;0.22;;
85303;SDS011;75708;47.930;13.782;2024-03-29T07:30:13;0.30;;;0.10;;
85303;SDS011;75708;47.930;13.782;2024-03-29T07:32:43;0.65;;;0.15;;
85303;SDS011;75708;47.930;13.782;2024-03-29T07:35:11;0.60;;;0.20;;
85303;SDS011;75708;47.930;13.782;2024-03-29T07:37:39;0.73;;;0.20;;
85303;SDS011;75708;47.930;13.782;2024-03-29T07:40:05;0.60;;;0.10;;
85303;SDS011;75708;47.930;13.782;2024-03-29T07:42:31;0.17;;;0.10;;
85303;SDS011;75708;47.930;13.782;2024-03-29T07:44:57;0.65;;;0.30;;
85303;SDS011;75708;47.930;13.782;2024-03-29T07:47:22;0.50;;;0.10;;
85303;SDS011;75708;47.930;13.782;2024-03-29T07:49:50;0.22;;;0.10;;
85303;SDS011;75708;47.930;13.782;2024-03-29T07:52:16;0.40;;;0.13;;
85303;SDS011;75708;47.930;13.782;2024-03-29T07:54:42;0.60;;;0.30;;
85303;SDS011;75708;47.930;13.782;2024-03-29T07:57:07;0.10;;;0.08;;
85303;SDS011;75708;47.930;13.782;2024-03-29T07:59:33;2.15;;;0.30;;
85303;SDS011;75708;47.930;13.782;2024-03-29T08:01:59;0.30;;;0.13;;
85303;SDS011;75708;47.930;13.782;2024-03-29T08:04:27;1.38;;;0.15;;
85303;SDS011;75708;47.930;13.782;2024-03-29T08:06:52;1.05;;;0.30;;
85303;SDS011;75708;47.930;13.782;2024-03-29T08:09:18;0.10;;;0.00;;
85303;SDS011;75708;47.930;13.782;2024-03-29T08:11:43;0.10;;;0.10;;
85303;SDS011;75708;47.930;13.782;2024-03-29T08:14:09;1.88;;;0.30;;
85303;SDS011;75708;47.930;13.782;2024-03-29T08:16:34;5.25;;;0.20;;
85303;SDS011;75708;47.930;13.782;2024-03-29T08:19:00;0.32;;;0.10;;
85303;SDS011;75708;47.930;13.782;2024-03-29T08:21:26;0.30;;;0.10;;
85303;SDS011;75708;47.930;13.782;2024-03-29T08:23:52;0.73;;;0.28;;
85303;SDS011;75708;47.930;13.782;2024-03-29T08:26:20;0.68;;;0.10;;
85303;SDS011;75708;47.930;13.782;2024-03-29T08:28:46;0.40;;;0.20;;
85303;SDS011;75708;47.930;13.782;2024-03-29T08:31:11;0.55;;;0.13;;
85303;SDS011;75708;47.930;13.782;2024-03-29T08:33:37;1.90;;;0.17;;
85303;SDS011;75708;47.930;13.782;2024-03-29T08:36:04;0.70;;;0.40;;
85303;SDS011;75708;47.930;13.782;2024-03-29T08:38:30;0.43;;;0.17;;
85303;SDS011;75708;47.930;13.782;2024-03-29T08:40:56;1.67;;;0.35;;
85303;SDS011;75708;47.930;13.782;2024-03-29T08:43:22;0.32;;;0.10;;
85303;SDS011;75708;47.930;13.782;2024-03-29T08:45:47;0.30;;;0.10;;
85303;SDS011;75708;47.930;13.782;2024-03-29T08:48:13;2.58;;;0.25;;
85303;SDS011;75708;47.930;13.782;2024-03-29T08:50:39;0.22;;;0.10;;
85303;SDS011;75708;47.930;13.782;2024-03-29T08:53:05;0.47;;;0.20;;
85303;SDS011;75708;47.930;13.782;2024-03-29T08:55:31;0.38;;;0.10;;
85303;SDS011;75708;47.930;13.782;2024-03-29T08:57:57;0.77;;;0.20;;
85303;SDS011;75708;47.930;13.782;2024-03-29T09:00:26;1.10;;;0.20;;
85303;SDS011;75708;47.930;13.782;2024-03-29T09:02:53;1.67;;;0.20;;
85303;SDS011;75708;47.930;13.782;2024-03-29T09:05:19;2.28;;;0.20;;
85303;SDS011;75708;47.930;13.782;2024-03-29T09:07:45;0.45;;;0.03;;
85303;SDS011;75708;47.930;13.782;2024-03-29T09:10:11;0.50;;;0.20;;
85303;SDS011;75708;47.930;13.782;2024-03-29T09:12:37;2.53;;;0.20;;
85303;SDS011;75708;47.930;13.782;2024-03-29T09:15:03;4.65;;;0.63;;
85303;SDS011;75708;47.930;13.782;2024-03-29T09:17:33;1.08;;;0.47;;
85303;SDS011;75708;47.930;13.782;2024-03-29T09:19:59;0.98;;;0.43;;
85303;SDS011;75708;47.930;13.782;2024-03-29T09:22:25;0.55;;;0.20;;
85303;SDS011;75708;47.930;13.782;2024-03-29T09:24:50;1.10;;;0.50;;
85303;SDS011;75708;47.930;13.782;2024-03-29T09:27:16;1.88;;;0.65;;
85303;SDS011;75708;47.930;13.782;2024-03-29T09:29:42;1.55;;;0.50;;
85303;SDS011;75708;47.930;13.782;2024-03-29T09:32:08;2.72;;;0.60;;
85303;SDS011;75708;47.930;13.782;2024-03-29T09:34:33;4.38;;;1.17;;
85303;SDS011;75708;47.930;13.782;2024-03-29T09:36:59;1.95;;;0.70;;
85303;SDS011;75708;47.930;13.782;2024-03-29T09:39:25;2.60;;;1.00;;
85303;SDS011;75708;47.930;13.782;2024-03-29T09:41:50;2.45;;;0.80;;
85303;SDS011;75708;47.930;13.782;2024-03-29T09:44:18;2.78;;;0.75;;
85303;SDS011;75708;47.930;13.782;2024-03-29T09:46:46;3.47;;;1.13;;
85303;SDS011;75708;47.930;13.782;2024-03-29T09:49:13;5.13;;;1.50;;
85303;SDS011;75708;47.930;13.782;2024-03-29T09:51:39;3.90;;;1.52;;
85303;SDS011;75708;47.930;13.782;2024-03-29T09:54:06;1.63;;;0.90;;
85303;SDS011;75708;47.930;13.782;2024-03-29T09:56:38;2.45;;;0.88;;
85303;SDS011;75708;47.930;13.782;2024-03-29T09:59:04;4.82;;;1.52;;
85303;SDS011;75708;47.930;13.782;2024-03-29T10:01:30;3.45;;;1.23;;
85303;SDS011;75708;47.930;13.782;2024-03-29T10:03:56;3.35;;;1.30;;
85303;SDS011;75708;47.930;13.782;2024-03-29T10:06:24;3.67;;;1.60;;
85303;SDS011;75708;47.930;13.782;2024-03-29T10:08:50;3.30;;;1.45;;
85303;SDS011;75708;47.930;13.782;2024-03-29T10:11:17;5.03;;;1.55;;
85303;SDS011;75708;47.930;13.782;2024-03-29T10:13:45;2.75;;;1.70;;
85303;SDS011;75708;47.930;13.782;2024-03-29T10:16:11;6.93;;;1.98;;
85303;SDS011;75708;47.930;13.782;2024-03-29T10:18:37;3.63;;;1.50;;
85303;SDS011;75708;47.930;13.782;2024-03-29T10:21:06;3.15;;;1.40;;
85303;SDS011;75708;47.930;13.782;2024-03-29T10:23:33;3.50;;;1.70;;
85303;SDS011;75708;47.930;13.782;2024-03-29T10:26:00;3.17;;;1.40;;
85303;SDS011;75708;47.930;13.782;2024-03-29T10:28:32;3.92;;;1.65;;
85303;SDS011;75708;47.930;13.782;2024-03-29T10:31:03;2.95;;;1.50;;
85303;SDS011;75708;47.930;13.782;2024-03-29T10:33:32;2.70;;;1.52;;
85303;SDS011;75708;47.930;13.782;2024-03-29T10:35:59;2.38;;;1.10;;
85303;SDS011;75708;47.930;13.782;2024-03-29T10:38:25;2.60;;;1.27;;
85303;SDS011;75708;47.930;13.782;2024-03-29T10:40:51;3.50;;;1.08;;
85303;SDS011;75708;47.930;13.782;2024-03-29T10:43:18;2.05;;;1.15;;
85303;SDS011;75708;47.930;13.782;2024-03-29T10:45:48;1.83;;;1.27;;
85303;SDS011;75708;47.930;13.782;2024-03-29T10:48:16;2.65;;;1.10;;
85303;SDS011;75708;47.930;13.782;2024-03-29T10:50:42;3.42;;;1.60;;
85303;SDS011;75708;47.930;13.782;2024-03-29T10:53:09;1.52;;;1.20;;
85303;SDS011;75708;47.930;13.782;2024-03-29T10:55:38;2.03;;;1.48;;
85303;SDS011;75708;47.930;13.782;2024-03-29T10:58:04;2.03;;;1.30;;
85303;SDS011;75708;47.930;13.782;2024-03-29T11:00:35;2.30;;;1.25;;
85303;SDS011;75708;47.930;13.782;2024-03-29T11:03:17;2.85;;;1.50;;
85303;SDS011;75708;47.930;13.782;2024-03-29T11:05:47;2.90;;;1.00;;
85303;SDS011;75708;47.930;13.782;2024-03-29T11:08:24;2.35;;;1.13;;
85303;SDS011;75708;47.930;13.782;2024-03-29T11:10:53;3.10;;;1.50;;
85303;SDS011;75708;47.930;13.782;2024-03-29T11:16:05;2.03;;;1.30;;
85303;SDS011;75708;47.930;13.782;2024-03-29T11:18:32;1.80;;;1.20;;
85303;SDS011;75708;47.930;13.782;2024-03-29T11:20:59;2.10;;;1.30;;
85303;SDS011;75708;47.930;13.782;2024-03-29T11:23:27;2.83;;;1.48;;
85303;SDS011;75708;47.930;13.782;2024-03-29T11:25:57;3.95;;;1.48;;
85303;SDS011;75708;47.930;13.782;2024-03-29T11:28:31;4.38;;;1.45;;
85303;SDS011;75708;47.930;13.782;2024-03-29T11:31:07;2.55;;;1.48;;
85303;SDS011;75708;47.930;13.782;2024-03-29T11:33:34;2.25;;;1.40;;
85303;SDS011;75708;47.930;13.782;2024-03-29T11:38:43;2.00;;;1.30;;
85303;SDS011;75708;47.930;13.782;2024-03-29T11:41:11;2.47;;;1.25;;
85303;SDS011;75708;47.930;13.782;2024-03-29T11:43:38;2.38;;;1.42;;
85303;SDS011;75708;47.930;13.782;2024-03-29T11:46:08;3.03;;;1.55;;
85303;SDS011;75708;47.930;13.782;2024-03-29T11:48:36;2.67;;;1.67;;
85303;SDS011;75708;47.930;13.782;2024-03-29T11:51:03;3.42;;;1.30;;
85303;SDS011;75708;47.930;13.782;2024-03-29T11:53:30;1.70;;;1.23;;
85303;SDS011;75708;47.930;13.782;2024-03-29T11:55:57;2.95;;;1.50;;
85303;SDS011;75708;47.930;13.782;2024-03-29T11:58:24;2.30;;;1.40;;
85303;SDS011;75708;47.930;13.782;2024-03-29T12:00:51;2.60;;;1.45;;
85303;SDS011;75708;47.930;13.782;2024-03-29T12:03:18;2.05;;;1.38;;
85303;SDS011;75708;47.930;13.782;2024-03-29T12:05:46;4.50;;;1.40;;
85303;SDS011;75708;47.930;13.782;2024-03-29T12:08:13;3.05;;;1.33;;
85303;SDS011;75708;47.930;13.782;2024-03-29T12:10:40;1.75;;;1.10;;
85303;SDS011;75708;47.930;13.782;2024-03-29T12:13:06;2.58;;;1.38;;
85303;SDS011;75708;47.930;13.782;2024-03-29T12:15:32;2.53;;;1.33;;
85303;SDS011;75708;47.930;13.782;2024-03-29T12:18:02;1.50;;;0.90;;
85303;SDS011;75708;47.930;13.782;2024-03-29T12:20:30;2.20;;;0.82;;
85303;SDS011;75708;47.930;13.782;2024-03-29T12:22:58;2.63;;;1.00;;
85303;SDS011;75708;47.930;13.782;2024-03-29T12:25:25;2.38;;;1.30;;
85303;SDS011;75708;47.930;13.782;2024-03-29T12:27:52;1.70;;;0.98;;
85303;SDS011;75708;47.930;13.782;2024-03-29T12:30:18;1.83;;;1.13;;
85303;SDS011;75708;47.930;13.782;2024-03-29T12:32:44;1.95;;;1.05;;
85303;SDS011;75708;47.930;13.782;2024-03-29T12:35:14;1.45;;;0.90;;
85303;SDS011;75708;47.930;13.782;2024-03-29T12:37:47;1.80;;;1.00;;
85303;SDS011;75708;47.930;13.782;2024-03-29T12:40:21;2.38;;;1.00;;
85303;SDS011;75708;47.930;13.782;2024-03-29T12:42:50;2.25;;;0.95;;
85303;SDS011;75708;47.930;13.782;2024-03-29T12:45:17;3.08;;;1.08;;
85303;SDS011;75708;47.930;13.782;2024-03-29T12:47:44;2.90;;;1.13;;
85303;SDS011;75708;47.930;13.782;2024-03-29T12:50:13;2.38;;;0.95;;
85303;SDS011;75708;47.930;13.782;2024-03-29T12:52:44;1.23;;;1.00;;
85303;SDS011;75708;47.930;13.782;2024-03-29T12:55:09;2.38;;;1.33;;
85303;SDS011;75708;47.930;13.782;2024-03-29T12:57:36;3.38;;;0.90;;
85303;SDS011;75708;47.930;13.782;2024-03-29T13:00:03;4.65;;;1.27;;
85303;SDS011;75708;47.930;13.782;2024-03-29T13:02:34;1.33;;;0.93;;
85303;SDS011;75708;47.930;13.782;2024-03-29T13:05:03;1.77;;;0.93;;
85303;SDS011;75708;47.930;13.782;2024-03-29T13:07:32;1.92;;;1.10;;
85303;SDS011;75708;47.930;13.782;2024-03-29T13:10:01;2.05;;;0.77;;
85303;SDS011;75708;47.930;13.782;2024-03-29T13:12:30;1.58;;;1.00;;
85303;SDS011;75708;47.930;13.782;2024-03-29T13:15:01;1.70;;;0.80;;
85303;SDS011;75708;47.930;13.782;2024-03-29T13:17:30;1.88;;;0.98;;
85303;SDS011;75708;47.930;13.782;2024-03-29T13:19:56;1.45;;;0.65;;
85303;SDS011;75708;47.930;13.782;2024-03-29T13:22:22;1.88;;;0.73;;
85303;SDS011;75708;47.930;13.782;2024-03-29T13:24:48;2.53;;;1.13;;
85303;SDS011;75708;47.930;13.782;2024-03-29T13:27:13;3.17;;;0.90;;
85303;SDS011;75708;47.930;13.782;2024-03-29T13:29:41;2.10;;;0.95;;
85303;SDS011;75708;47.930;13.782;2024-03-29T13:32:07;3.30;;;0.80;;
85303;SDS011;75708;47.930;13.782;2024-03-29T13:34:32;1.50;;;0.90;;
85303;SDS011;75708;47.930;13.782;2024-03-29T13:36:58;1.92;;;0.60;;
85303;SDS011;75708;47.930;13.782;2024-03-29T13:39:23;1.98;;;0.70;;
85303;SDS011;75708;47.930;13.782;2024-03-29T13:41:49;1.75;;;0.80;;
85303;SDS011;75708;47.930;13.782;2024-03-29T13:44:15;4.93;;;0.75;;
85303;SDS011;75708;47.930;13.782;2024-03-29T13:46:42;1.23;;;0.70;;
85303;SDS011;75708;47.930;13.782;2024-03-29T13:49:08;6.57;;;0.80;;
85303;SDS011;75708;47.930;13.782;2024-03-29T13:51:34;2.47;;;1.00;;
85303;SDS011;75708;47.930;13.782;2024-03-29T13:53:59;2.42;;;1.13;;
85303;SDS011;75708;47.930;13.782;2024-03-29T13:56:25;2.25;;;0.82;;
85303;SDS011;75708;47.930;13.782;2024-03-29T13:58:51;1.30;;;0.65;;
85303;SDS011;75708;47.930;13.782;2024-03-29T14:01:17;3.30;;;0.65;;
85303;SDS011;75708;47.930;13.782;2024-03-29T14:03:42;1.05;;;0.45;;
85303;SDS011;75708;47.930;13.782;2024-03-29T14:06:09;2.95;;;0.80;;
85303;SDS011;75708;47.930;13.782;2024-03-29T14:08:35;1.90;;;0.60;;
85303;SDS011;75708;47.930;13.782;2024-03-29T14:11:01;3.88;;;0.93;;
85303;SDS011;75708;47.930;13.782;2024-03-29T14:13:27;4.18;;;0.90;;
85303;SDS011;75708;47.930;13.782;2024-03-29T14:15:53;2.85;;;0.60;;
85303;SDS011;75708;47.930;13.782;2024-03-29T14:18:20;1.48;;;0.60;;
85303;SDS011;75708;47.930;13.782;2024-03-29T14:20:46;3.75;;;0.80;;
85303;SDS011;75708;47.930;13.782;2024-03-29T14:23:11;1.70;;;0.50;;
85303;SDS011;75708;47.930;13.782;2024-03-29T14:25:40;1.52;;;0.52;;
85303;SDS011;75708;47.930;13.782;2024-03-29T14:28:06;1.65;;;0.77;;
85303;SDS011;75708;47.930;13.782;2024-03-29T14:30:31;1.33;;;0.55;;
85303;SDS011;75708;47.930;13.782;2024-03-29T14:32:57;3.50;;;0.75;;
85303;SDS011;75708;47.930;13.782;2024-03-29T14:35:28;2.47;;;0.63;;
85303;SDS011;75708;47.930;13.782;2024-03-29T14:37:56;2.03;;;0.60;;
85303;SDS011;75708;47.930;13.782;2024-03-29T14:40:22;6.63;;;0.80;;